createdAt,value
2023-05-17T00:00:52.844Z,0.00
2023-05-17T00:01:52.924Z,0.00
2023-05-17T00:02:53.069Z,0.00
2023-05-17T00:03:53.129Z,0.00
2023-05-17T00:04:53.362Z,0.00
2023-05-17T00:05:53.563Z,0.00
2023-05-17T00:06:53.540Z,0.00
2023-05-17T00:07:53.817Z,0.00
2023-05-17T00:08:53.783Z,0.00
2023-05-17T00:09:53.947Z,0.00
2023-05-17T00:10:54.051Z,0.00
2023-05-17T00:11:54.148Z,0.00
2023-05-17T00:12:54.307Z,0.00
2023-05-17T00:13:54.380Z,0.00
2023-05-17T00:14:54.538Z,0.00
2023-05-17T00:15:54.694Z,0.00
2023-05-17T00:16:54.847Z,0.00
2023-05-17T00:17:55.157Z,0.00
2023-05-17T00:18:55.210Z,0.00
2023-05-17T00:19:55.345Z,0.00
2023-05-17T00:20:55.413Z,0.00
2023-05-17T00:21:55.494Z,0.00
2023-05-17T00:22:55.612Z,0.00
2023-05-17T00:23:55.773Z,0.00
2023-05-17T00:24:55.864Z,0.00
2023-05-17T00:25:56.090Z,0.00
2023-05-17T00:26:56.108Z,0.00
2023-05-17T00:27:56.318Z,0.00
2023-05-17T00:28:56.598Z,0.00
2023-05-17T00:29:56.518Z,0.00
2023-05-17T00:30:56.754Z,0.00
2023-05-17T00:31:56.790Z,0.00
2023-05-17T00:32:56.951Z,0.00
2023-05-17T00:33:57.030Z,0.00
2023-05-17T00:34:57.298Z,0.00
2023-05-17T00:35:57.312Z,0.00
2023-05-17T00:36:57.409Z,0.00
2023-05-17T00:37:57.566Z,0.00
2023-05-17T00:38:57.718Z,0.00
2023-05-17T00:39:57.784Z,0.00
2023-05-17T00:40:57.905Z,0.00
2023-05-17T00:41:58.066Z,0.00
2023-05-17T00:42:58.126Z,0.00
2023-05-17T00:43:58.292Z,0.00
2023-05-17T00:44:58.484Z,0.00
2023-05-17T00:45:58.613Z,0.00
2023-05-17T00:46:58.688Z,0.00
2023-05-17T00:47:59.055Z,0.00
2023-05-17T00:48:59.078Z,0.00
2023-05-17T00:49:59.134Z,0.00
2023-05-17T00:50:59.228Z,0.00
2023-05-17T00:51:59.338Z,0.00
2023-05-17T00:52:59.473Z,0.00
2023-05-17T00:53:59.600Z,0.00
2023-05-17T00:54:59.688Z,0.00
2023-05-17T00:55:59.848Z,0.00
2023-05-17T00:57:00.063Z,0.00
2023-05-17T00:58:00.091Z,0.00
2023-05-17T00:59:00.204Z,0.00
2023-05-17T01:00:00.441Z,0.00
2023-05-17T01:01:00.445Z,0.00
2023-05-17T01:02:00.679Z,0.00
2023-05-17T01:03:00.828Z,0.00
2023-05-17T01:04:01.025Z,0.00
2023-05-17T01:05:01.039Z,0.00
2023-05-17T01:06:01.134Z,0.00
2023-05-17T01:07:01.278Z,0.00
2023-05-17T01:08:01.426Z,0.00
2023-05-17T01:09:01.511Z,0.00
2023-05-17T01:10:01.655Z,0.00
2023-05-17T01:11:01.761Z,0.00
2023-05-17T01:12:01.911Z,0.00
2023-05-17T01:13:02.048Z,0.00
2023-05-17T01:14:02.153Z,0.00
2023-05-17T01:15:02.264Z,0.00
2023-05-17T01:16:02.386Z,0.00
2023-05-17T01:17:02.499Z,0.00
2023-05-17T01:18:02.681Z,0.00
2023-05-17T01:19:02.961Z,0.00
2023-05-17T01:20:03.151Z,0.00
2023-05-17T01:21:02.992Z,0.00
2023-05-17T01:22:03.120Z,0.00
2023-05-17T01:23:03.226Z,0.00
2023-05-17T01:24:03.343Z,0.00
2023-05-17T01:25:04.250Z,0.00
2023-05-17T01:26:03.613Z,0.00
2023-05-17T01:27:03.774Z,0.00
2023-05-17T01:28:03.902Z,0.00
2023-05-17T01:29:04.096Z,0.00
2023-05-17T01:30:04.084Z,0.00
2023-05-17T01:31:04.214Z,0.00
2023-05-17T01:32:04.387Z,0.00
2023-05-17T01:33:04.679Z,0.00
2023-05-17T01:34:04.641Z,0.00
2023-05-17T01:35:04.804Z,0.00
2023-05-17T01:36:05.016Z,0.00
2023-05-17T01:37:04.967Z,0.00
2023-05-17T01:38:05.125Z,0.00
2023-05-17T01:39:05.287Z,0.00
2023-05-17T01:40:05.428Z,0.00
2023-05-17T01:41:05.584Z,0.00
2023-05-17T01:42:05.668Z,0.00
2023-05-17T01:43:05.812Z,0.00
2023-05-17T01:44:05.951Z,0.00
2023-05-17T01:45:06.152Z,0.00
2023-05-17T01:46:06.259Z,0.00
2023-05-17T01:47:06.377Z,0.00
2023-05-17T01:48:06.656Z,0.00
2023-05-17T01:49:06.579Z,0.00
2023-05-17T01:50:06.697Z,0.00
2023-05-17T01:51:06.888Z,0.00
2023-05-17T01:52:06.923Z,0.00
2023-05-17T01:53:08.025Z,0.00
2023-05-17T01:54:07.287Z,0.00
2023-05-17T01:55:07.361Z,0.00
2023-05-17T01:56:07.811Z,0.00
2023-05-17T01:57:07.692Z,0.00
2023-05-17T01:58:07.825Z,0.00
2023-05-17T01:59:07.981Z,0.00
2023-05-17T02:00:08.059Z,0.00
2023-05-17T02:01:08.265Z,0.00
2023-05-17T02:02:08.341Z,0.00
2023-05-17T02:03:08.417Z,0.00
2023-05-17T02:04:08.724Z,0.00
2023-05-17T02:05:08.868Z,0.00
2023-05-17T02:06:08.963Z,0.00
2023-05-17T02:07:08.980Z,0.00
2023-05-17T02:08:09.098Z,0.00
2023-05-17T02:09:09.204Z,0.00
2023-05-17T02:10:09.396Z,0.00
2023-05-17T02:11:09.585Z,0.00
2023-05-17T02:12:09.692Z,0.00
2023-05-17T02:13:09.822Z,0.00
2023-05-17T02:14:09.913Z,0.00
2023-05-17T02:15:10.154Z,0.00
2023-05-17T02:16:10.168Z,0.00
2023-05-17T02:17:10.315Z,0.00
2023-05-17T02:18:10.951Z,0.00
2023-05-17T02:19:10.553Z,0.00
2023-05-17T02:20:10.694Z,0.00
2023-05-17T02:21:10.854Z,0.00
2023-05-17T02:22:10.912Z,0.00
2023-05-17T02:23:11.131Z,0.00
2023-05-17T02:24:11.295Z,0.00
2023-05-17T02:25:11.314Z,0.00
2023-05-17T02:26:11.468Z,0.00
2023-05-17T02:27:11.572Z,0.00
2023-05-17T02:28:11.795Z,0.00
2023-05-17T02:29:11.799Z,0.00
2023-05-17T02:30:11.943Z,0.00
2023-05-17T02:31:12.176Z,0.00
2023-05-17T02:32:12.255Z,0.00
2023-05-17T02:33:12.427Z,0.00
2023-05-17T02:34:12.479Z,0.00
2023-05-17T02:35:12.661Z,0.00
2023-05-17T02:36:12.778Z,0.00
2023-05-17T02:37:12.896Z,0.00
2023-05-17T02:38:13.038Z,0.00
2023-05-17T02:39:13.186Z,0.00
2023-05-17T02:40:13.330Z,0.00
2023-05-17T02:41:13.469Z,0.00
2023-05-17T02:42:13.588Z,0.00
2023-05-17T02:43:13.636Z,0.00
2023-05-17T02:44:13.819Z,0.00
2023-05-17T02:45:13.964Z,0.00
2023-05-17T02:46:14.078Z,0.00
2023-05-17T02:47:14.313Z,0.00
2023-05-17T02:48:14.393Z,0.00
2023-05-17T02:49:15.101Z,0.00
2023-05-17T02:50:14.566Z,0.00
2023-05-17T02:51:14.749Z,0.00
2023-05-17T02:52:14.788Z,0.00
2023-05-17T02:53:14.948Z,0.00
2023-05-17T02:54:15.394Z,0.00
2023-05-17T02:55:15.161Z,0.00
2023-05-17T02:56:15.362Z,0.00
2023-05-17T02:57:15.424Z,0.00
2023-05-17T02:58:15.562Z,0.00
2023-05-17T02:59:15.737Z,0.00
2023-05-17T03:00:15.884Z,0.00
2023-05-17T03:01:16.019Z,0.00
2023-05-17T03:02:16.172Z,0.00
2023-05-17T03:03:16.374Z,0.00
2023-05-17T03:04:16.395Z,0.00
2023-05-17T03:05:16.507Z,0.00
2023-05-17T03:06:16.621Z,0.00
2023-05-17T03:07:16.716Z,0.00
2023-05-17T03:08:17.067Z,0.00
2023-05-17T03:09:16.996Z,0.00
2023-05-17T03:10:17.057Z,0.00
2023-05-17T03:11:17.223Z,0.00
2023-05-17T03:12:17.370Z,0.00
2023-05-17T03:13:17.480Z,0.00
2023-05-17T03:14:17.680Z,0.00
2023-05-17T03:15:17.747Z,0.00
2023-05-17T03:16:17.853Z,0.00
2023-05-17T03:17:18.036Z,0.00
2023-05-17T03:18:18.323Z,0.00
2023-05-17T03:19:18.440Z,0.00
2023-05-17T03:20:18.397Z,0.00
2023-05-17T03:21:18.552Z,0.00
2023-05-17T03:22:18.783Z,0.00
2023-05-17T03:23:18.838Z,0.00
2023-05-17T03:24:18.974Z,0.00
2023-05-17T03:25:19.100Z,0.00
2023-05-17T03:26:19.206Z,0.00
2023-05-17T03:27:19.392Z,0.00
2023-05-17T03:28:19.585Z,0.00
2023-05-17T03:29:19.586Z,0.00
2023-05-17T03:30:19.742Z,0.00
2023-05-17T03:31:19.939Z,0.00
2023-05-17T03:32:19.967Z,0.00
2023-05-17T03:33:20.240Z,0.00
2023-05-17T03:34:20.372Z,0.00
2023-05-17T03:35:20.370Z,0.00
2023-05-17T03:36:20.483Z,0.00
2023-05-17T03:37:20.633Z,0.00
2023-05-17T03:38:20.767Z,0.00
2023-05-17T03:39:20.872Z,0.00
2023-05-17T03:40:21.019Z,0.00
2023-05-17T03:41:21.131Z,5.62
2023-05-17T03:42:21.308Z,5.62
2023-05-17T03:43:21.391Z,5.62
2023-05-17T03:44:21.487Z,5.62
2023-05-17T03:45:21.637Z,5.62
2023-05-17T03:46:21.873Z,5.62
2023-05-17T03:47:21.986Z,5.62
2023-05-17T03:48:22.211Z,5.62
2023-05-17T03:49:22.197Z,5.62
2023-05-17T03:50:22.339Z,5.62
2023-05-17T03:51:22.538Z,11.25
2023-05-17T03:52:22.688Z,11.25
2023-05-17T03:53:22.682Z,11.25
2023-05-17T03:54:22.849Z,11.25
2023-05-17T03:55:22.905Z,11.25
2023-05-17T03:56:23.058Z,11.25
2023-05-17T03:57:23.228Z,16.88
2023-05-17T03:58:23.314Z,16.88
2023-05-17T03:59:23.523Z,16.88
2023-05-17T04:00:23.566Z,16.88
2023-05-17T04:01:23.754Z,16.88
2023-05-17T04:02:23.870Z,16.88
2023-05-17T04:03:23.909Z,22.50
2023-05-17T04:04:24.250Z,22.50
2023-05-17T04:05:24.424Z,22.50
2023-05-17T04:06:24.293Z,22.50
2023-05-17T04:07:24.443Z,22.50
2023-05-17T04:08:24.602Z,28.12
2023-05-17T04:09:24.656Z,28.12
2023-05-17T04:10:24.816Z,28.12
2023-05-17T04:11:24.935Z,28.12
2023-05-17T04:12:25.090Z,28.12
2023-05-17T04:13:25.216Z,33.75
2023-05-17T04:14:25.348Z,33.75
2023-05-17T04:15:25.425Z,33.75
2023-05-17T04:16:25.518Z,33.75
2023-05-17T04:17:25.861Z,33.75
2023-05-17T04:18:25.887Z,33.75
2023-05-17T04:19:26.633Z,39.38
2023-05-17T04:20:26.138Z,39.38
2023-05-17T04:21:26.278Z,39.38
2023-05-17T04:22:26.506Z,45.00
2023-05-17T04:23:26.610Z,45.00
2023-05-17T04:24:26.731Z,50.62
2023-05-17T04:25:26.939Z,50.62
2023-05-17T04:26:26.956Z,56.25
2023-05-17T04:27:27.025Z,61.88
2023-05-17T04:28:27.248Z,61.88
2023-05-17T04:29:27.247Z,61.88
2023-05-17T04:30:27.536Z,61.88
2023-05-17T04:31:27.506Z,67.50
2023-05-17T04:32:27.684Z,73.12
2023-05-17T04:33:27.914Z,73.12
2023-05-17T04:34:27.885Z,73.12
2023-05-17T04:35:28.226Z,78.75
2023-05-17T04:36:28.117Z,78.75
2023-05-17T04:37:28.261Z,84.38
2023-05-17T04:38:28.470Z,90.00
2023-05-17T04:39:30.663Z,90.00
2023-05-17T04:40:28.650Z,90.00
2023-05-17T04:41:28.873Z,84.38
2023-05-17T04:42:29.043Z,84.38
2023-05-17T04:43:29.108Z,84.38
2023-05-17T04:44:29.287Z,84.38
2023-05-17T04:45:29.486Z,84.38
2023-05-17T04:46:29.534Z,95.62
2023-05-17T04:47:29.694Z,106.88
2023-05-17T04:48:29.894Z,106.88
2023-05-17T04:49:29.921Z,106.88
2023-05-17T04:50:30.047Z,112.50
2023-05-17T04:51:30.135Z,112.50
2023-05-17T04:52:30.266Z,112.50
2023-05-17T04:53:30.400Z,106.88
2023-05-17T04:54:30.542Z,118.12
2023-05-17T04:55:30.995Z,123.75
2023-05-17T04:56:30.832Z,135.00
2023-05-17T04:57:30.892Z,146.25
2023-05-17T04:58:31.176Z,135.00
2023-05-17T04:59:31.171Z,135.00
2023-05-17T05:00:31.326Z,135.00
2023-05-17T05:01:31.437Z,140.62
2023-05-17T05:02:31.647Z,140.62
2023-05-17T05:03:31.830Z,140.62
2023-05-17T05:04:31.983Z,146.25
2023-05-17T05:05:32.041Z,146.25
2023-05-17T05:06:32.148Z,151.88
2023-05-17T05:07:32.352Z,151.88
2023-05-17T05:08:32.575Z,151.88
2023-05-17T05:09:32.573Z,146.25
2023-05-17T05:10:32.663Z,151.88
2023-05-17T05:11:32.848Z,146.25
2023-05-17T05:12:32.926Z,140.62
2023-05-17T05:13:33.026Z,140.62
2023-05-17T05:14:33.209Z,146.25
2023-05-17T05:15:33.281Z,140.62
2023-05-17T05:16:33.429Z,140.62
2023-05-17T05:17:33.597Z,146.25
2023-05-17T05:18:33.747Z,146.25
2023-05-17T05:19:33.863Z,146.25
2023-05-17T05:20:33.963Z,163.12
2023-05-17T05:21:34.104Z,174.38
2023-05-17T05:22:34.359Z,180.00
2023-05-17T05:23:34.364Z,174.38
2023-05-17T05:24:34.485Z,180.00
2023-05-17T05:25:34.600Z,196.88
2023-05-17T05:26:34.706Z,202.50
2023-05-17T05:27:34.968Z,208.12
2023-05-17T05:28:34.969Z,213.75
2023-05-17T05:29:35.187Z,225.00
2023-05-17T05:30:35.311Z,225.00
2023-05-17T05:31:35.404Z,230.62
2023-05-17T05:32:35.627Z,208.12
2023-05-17T05:33:35.733Z,174.38
2023-05-17T05:34:35.794Z,146.25
2023-05-17T05:35:35.899Z,135.00
2023-05-17T05:36:36.112Z,129.38
2023-05-17T05:37:36.177Z,118.12
2023-05-17T05:38:36.306Z,118.12
2023-05-17T05:39:36.385Z,129.38
2023-05-17T05:40:36.551Z,118.12
2023-05-17T05:41:36.701Z,123.75
2023-05-17T05:42:36.825Z,118.12
2023-05-17T05:43:36.916Z,151.88
2023-05-17T05:44:37.228Z,163.12
2023-05-17T05:45:37.141Z,151.88
2023-05-17T05:46:37.311Z,129.38
2023-05-17T05:47:37.469Z,118.12
2023-05-17T05:48:37.675Z,112.50
2023-05-17T05:49:37.697Z,129.38
2023-05-17T05:50:37.790Z,174.38
2023-05-17T05:51:37.931Z,191.25
2023-05-17T05:52:38.131Z,241.88
2023-05-17T05:53:38.168Z,219.38
2023-05-17T05:54:38.363Z,202.50
2023-05-17T05:55:38.463Z,213.75
2023-05-17T05:56:38.637Z,196.88
2023-05-17T05:57:38.750Z,213.75
2023-05-17T05:58:38.884Z,247.50
2023-05-17T05:59:39.030Z,264.38
2023-05-17T06:00:39.159Z,315.00
2023-05-17T06:01:39.427Z,343.12
2023-05-17T06:02:39.539Z,348.75
2023-05-17T06:03:39.526Z,337.50
2023-05-17T06:04:45.293Z,281.25
2023-05-17T06:05:40.869Z,298.12
2023-05-17T06:06:40.052Z,343.12
2023-05-17T06:07:40.084Z,405.00
2023-05-17T06:08:40.163Z,433.12
2023-05-17T06:09:40.287Z,399.38
2023-05-17T06:10:40.390Z,365.62
2023-05-17T06:11:40.579Z,371.25
2023-05-17T06:12:40.661Z,455.62
2023-05-17T06:13:40.830Z,360.00
2023-05-17T06:14:40.946Z,343.12
2023-05-17T06:15:41.070Z,281.25
2023-05-17T06:16:41.293Z,264.38
2023-05-17T06:17:41.398Z,270.00
2023-05-17T06:18:41.513Z,281.25
2023-05-17T06:19:41.598Z,298.12
2023-05-17T06:20:41.707Z,303.75
2023-05-17T06:21:41.876Z,286.88
2023-05-17T06:22:41.978Z,292.50
2023-05-17T06:23:42.082Z,286.88
2023-05-17T06:24:42.231Z,236.25
2023-05-17T06:25:42.353Z,241.88
2023-05-17T06:26:42.644Z,292.50
2023-05-17T06:27:42.583Z,253.12
2023-05-17T06:28:42.827Z,230.62
2023-05-17T06:29:42.832Z,225.00
2023-05-17T06:30:42.995Z,354.38
2023-05-17T06:31:43.174Z,258.75
2023-05-17T06:32:43.317Z,213.75
2023-05-17T06:33:43.359Z,241.88
2023-05-17T06:34:43.451Z,365.62
2023-05-17T06:35:55.560Z,331.88
2023-05-17T06:36:44.801Z,281.25
2023-05-17T06:37:43.879Z,298.12
2023-05-17T06:38:44.125Z,298.12
2023-05-17T06:39:47.983Z,365.62
2023-05-17T06:40:45.314Z,258.75
2023-05-17T06:41:44.345Z,275.62
2023-05-17T06:42:44.548Z,292.50
2023-05-17T06:43:44.585Z,286.88
2023-05-17T06:44:44.828Z,298.12
2023-05-17T06:45:44.905Z,388.12
2023-05-17T06:46:44.996Z,315.00
2023-05-17T06:47:45.160Z,270.00
2023-05-17T06:48:46.847Z,185.62
2023-05-17T06:49:45.357Z,146.25
2023-05-17T06:50:45.515Z,213.75
2023-05-17T06:51:45.597Z,320.62
2023-05-17T06:52:45.869Z,230.62
2023-05-17T06:53:45.935Z,174.38
2023-05-17T06:54:46.067Z,123.75
2023-05-17T06:55:46.152Z,118.12
2023-05-17T06:56:46.334Z,112.50
2023-05-17T06:57:46.391Z,157.50
2023-05-17T06:58:46.548Z,219.38
2023-05-17T06:59:47.657Z,247.50
2023-05-17T07:00:46.761Z,331.88
2023-05-17T07:01:46.861Z,376.88
2023-05-17T07:02:47.062Z,326.25
2023-05-17T07:03:47.276Z,331.88
2023-05-17T07:04:47.477Z,399.38
2023-05-17T07:05:47.367Z,472.50
2023-05-17T07:06:47.512Z,551.25
2023-05-17T07:07:47.637Z,545.62
2023-05-17T07:08:47.867Z,523.12
2023-05-17T07:09:47.854Z,517.50
2023-05-17T07:10:48.030Z,540.00
2023-05-17T07:11:48.255Z,540.00
2023-05-17T07:12:48.396Z,545.62
2023-05-17T07:13:48.567Z,607.50
2023-05-17T07:14:48.537Z,500.62
2023-05-17T07:15:48.633Z,410.62
2023-05-17T07:16:48.774Z,303.75
2023-05-17T07:17:48.914Z,236.25
2023-05-17T07:18:49.128Z,241.88
2023-05-17T07:19:49.397Z,337.50
2023-05-17T07:20:49.317Z,472.50
2023-05-17T07:21:49.357Z,438.75
2023-05-17T07:22:49.514Z,427.50
2023-05-17T07:23:49.646Z,461.25
2023-05-17T07:24:49.797Z,483.75
2023-05-17T07:25:49.904Z,438.75
2023-05-17T07:26:52.166Z,410.62
2023-05-17T07:27:50.150Z,427.50
2023-05-17T07:28:50.336Z,472.50
2023-05-17T07:29:50.455Z,562.50
2023-05-17T07:30:50.470Z,568.12
2023-05-17T07:31:50.722Z,523.12
2023-05-17T07:32:50.768Z,528.75
2023-05-17T07:33:50.997Z,511.88
2023-05-17T07:34:50.923Z,489.38
2023-05-17T07:35:51.105Z,478.12
2023-05-17T07:36:51.167Z,500.62
2023-05-17T07:37:51.260Z,523.12
2023-05-17T07:38:51.510Z,483.75
2023-05-17T07:39:51.538Z,371.25
2023-05-17T07:40:51.612Z,343.12
2023-05-17T07:41:51.701Z,337.50
2023-05-17T07:42:51.864Z,281.25
2023-05-17T07:43:51.990Z,275.62
2023-05-17T07:44:52.184Z,286.88
2023-05-17T07:45:52.332Z,303.75
2023-05-17T07:46:52.393Z,247.50
2023-05-17T07:47:52.448Z,270.00
2023-05-17T07:48:52.989Z,776.25
2023-05-17T07:49:52.678Z,821.25
2023-05-17T07:50:52.781Z,781.88
2023-05-17T07:51:52.915Z,742.50
2023-05-17T07:52:53.111Z,523.12
2023-05-17T07:53:53.346Z,793.12
2023-05-17T07:54:53.378Z,832.50
2023-05-17T07:55:53.498Z,900.00
2023-05-17T07:56:53.618Z,427.50
2023-05-17T07:57:53.724Z,444.38
2023-05-17T07:58:53.827Z,573.75
2023-05-17T07:59:54.374Z,483.75
2023-05-17T08:00:54.113Z,483.75
2023-05-17T08:01:54.181Z,309.38
2023-05-17T08:02:54.352Z,275.62
2023-05-17T08:03:54.531Z,337.50
2023-05-17T08:04:54.833Z,438.75
2023-05-17T08:05:54.694Z,697.50
2023-05-17T08:06:54.799Z,933.75
2023-05-17T08:07:54.962Z,388.12
2023-05-17T08:08:55.060Z,393.75
2023-05-17T08:09:55.318Z,1085.62
2023-05-17T08:10:55.274Z,1158.75
2023-05-17T08:11:55.469Z,1192.50
2023-05-17T08:12:55.575Z,725.62
2023-05-17T08:13:55.620Z,590.62
2023-05-17T08:14:56.781Z,776.25
2023-05-17T08:16:05.158Z,753.75
2023-05-17T08:16:57.028Z,416.25
2023-05-17T08:17:56.204Z,320.62
2023-05-17T08:18:56.275Z,281.25
2023-05-17T08:19:56.360Z,241.88
2023-05-17T08:20:56.466Z,241.88
2023-05-17T08:21:56.791Z,320.62
2023-05-17T08:22:56.752Z,5619.38
2023-05-17T08:23:56.864Z,4275.00
2023-05-17T08:24:57.071Z,3678.75
2023-05-17T08:25:57.681Z,2885.62
2023-05-17T08:26:57.280Z,1822.50
2023-05-17T08:27:57.513Z,562.50
2023-05-17T08:28:57.478Z,337.50
2023-05-17T08:30:01.049Z,331.88
2023-05-17T08:30:57.732Z,410.62
2023-05-17T08:31:57.876Z,731.25
2023-05-17T08:32:58.154Z,483.75
2023-05-17T08:33:58.102Z,961.88
2023-05-17T08:34:58.266Z,433.12
2023-05-17T08:35:58.309Z,528.75
2023-05-17T08:36:58.480Z,708.75
2023-05-17T08:37:58.632Z,680.62
2023-05-17T08:38:58.716Z,523.12
2023-05-17T08:39:58.909Z,444.38
2023-05-17T08:40:58.978Z,421.88
2023-05-17T08:41:59.096Z,416.25
2023-05-17T08:42:59.214Z,421.88
2023-05-17T08:43:59.392Z,669.38
2023-05-17T08:44:59.571Z,495.00
2023-05-17T08:45:59.631Z,607.50
2023-05-17T08:46:59.693Z,545.62
2023-05-17T08:47:59.884Z,517.50
2023-05-17T08:49:00.265Z,573.75
2023-05-17T08:50:00.134Z,1501.88
2023-05-17T08:51:00.354Z,759.38
2023-05-17T08:52:00.335Z,427.50
2023-05-17T08:53:00.620Z,320.62
2023-05-17T08:54:00.620Z,360.00
2023-05-17T08:55:00.812Z,438.75
2023-05-17T08:56:00.921Z,461.25
2023-05-17T08:57:01.037Z,511.88
2023-05-17T08:58:01.063Z,601.88
2023-05-17T08:59:01.286Z,691.88
2023-05-17T09:00:01.489Z,2801.25
2023-05-17T09:01:01.550Z,658.12
2023-05-17T09:02:01.614Z,568.12
2023-05-17T09:03:01.787Z,635.62
2023-05-17T09:04:01.897Z,579.38
2023-05-17T09:05:02.160Z,478.12
2023-05-17T09:06:02.224Z,495.00
2023-05-17T09:07:02.243Z,551.25
2023-05-17T09:08:02.354Z,624.38
2023-05-17T09:09:02.574Z,866.25
2023-05-17T09:10:02.601Z,1018.12
2023-05-17T09:11:02.770Z,1029.38
2023-05-17T09:12:02.804Z,2739.38
2023-05-17T09:13:02.989Z,658.12
2023-05-17T09:14:03.103Z,613.12
2023-05-17T09:15:03.220Z,843.75
2023-05-17T09:16:03.324Z,1963.12
2023-05-17T09:17:03.465Z,545.62
2023-05-17T09:18:03.702Z,472.50
2023-05-17T09:19:03.984Z,534.38
2023-05-17T09:20:04.058Z,601.88
2023-05-17T09:21:03.956Z,2137.50
2023-05-17T09:22:04.182Z,3037.50
2023-05-17T09:23:04.199Z,2868.75
2023-05-17T09:24:08.088Z,2818.12
2023-05-17T09:25:04.557Z,2902.50
2023-05-17T09:26:04.506Z,2896.88
2023-05-17T09:27:04.627Z,748.12
2023-05-17T09:28:04.737Z,2981.25
2023-05-17T09:29:04.870Z,3268.12
2023-05-17T09:30:05.087Z,2401.88
2023-05-17T09:31:05.069Z,995.62
2023-05-17T09:32:05.179Z,2621.25
2023-05-17T09:33:05.310Z,916.88
2023-05-17T09:34:05.469Z,871.88
2023-05-17T09:35:05.578Z,950.62
2023-05-17T09:36:06.837Z,1276.88
2023-05-17T09:37:05.856Z,2317.50
2023-05-17T09:38:06.016Z,2840.62
2023-05-17T09:39:06.214Z,2739.38
2023-05-17T09:40:06.231Z,2508.75
2023-05-17T09:41:06.340Z,2638.12
2023-05-17T09:42:06.472Z,2610.00
2023-05-17T09:43:06.590Z,2812.50
2023-05-17T09:44:06.728Z,2863.12
2023-05-17T09:45:06.937Z,2992.50
2023-05-17T09:46:06.967Z,2941.88
2023-05-17T09:47:07.098Z,3026.25
2023-05-17T09:48:07.349Z,3020.62
2023-05-17T09:49:07.486Z,3178.12
2023-05-17T09:50:07.473Z,3144.38
2023-05-17T09:51:07.661Z,3138.75
2023-05-17T09:52:07.807Z,3183.75
2023-05-17T09:53:07.832Z,3138.75
2023-05-17T09:54:08.002Z,3178.12
2023-05-17T09:55:08.090Z,3161.25
2023-05-17T09:56:08.409Z,3324.38
2023-05-17T09:57:08.328Z,3465.00
2023-05-17T09:58:08.449Z,933.75
2023-05-17T09:59:08.563Z,1524.38
2023-05-17T10:00:08.798Z,1766.25
2023-05-17T10:01:08.780Z,883.12
2023-05-17T10:02:08.889Z,630.00
2023-05-17T10:03:09.085Z,540.00
2023-05-17T10:04:09.168Z,528.75
2023-05-17T10:05:09.336Z,573.75
2023-05-17T10:06:11.219Z,669.38
2023-05-17T10:07:09.526Z,1080.00
2023-05-17T10:08:09.692Z,1164.38
2023-05-17T10:09:09.777Z,1389.38
2023-05-17T10:10:09.904Z,849.38
2023-05-17T10:11:09.992Z,815.62
2023-05-17T10:12:10.094Z,776.25
2023-05-17T10:13:10.265Z,1873.12
2023-05-17T10:14:10.355Z,1569.38
2023-05-17T10:15:10.474Z,2598.75
2023-05-17T10:16:10.593Z,3285.00
2023-05-17T10:17:10.704Z,3116.25
2023-05-17T10:18:11.151Z,1389.38
2023-05-17T10:19:11.026Z,1665.00
2023-05-17T10:20:11.287Z,787.50
2023-05-17T10:21:11.170Z,658.12
2023-05-17T10:22:22.587Z,579.38
2023-05-17T10:23:12.500Z,551.25
2023-05-17T10:24:11.590Z,523.12
2023-05-17T10:25:11.627Z,511.88
2023-05-17T10:26:11.762Z,523.12
2023-05-17T10:27:11.867Z,562.50
2023-05-17T10:28:11.960Z,646.88
2023-05-17T10:29:12.100Z,781.88
2023-05-17T10:30:12.268Z,1496.25
2023-05-17T10:31:12.371Z,916.88
2023-05-17T10:32:12.470Z,2379.38
2023-05-17T10:33:12.712Z,2283.75
2023-05-17T10:34:12.834Z,2233.12
2023-05-17T10:35:12.906Z,2188.12
2023-05-17T10:36:12.953Z,1946.25
2023-05-17T10:37:13.076Z,2188.12
2023-05-17T10:38:13.321Z,2047.50
2023-05-17T10:39:13.322Z,2131.88
2023-05-17T10:40:13.988Z,2126.25
2023-05-17T10:41:13.574Z,2098.12
2023-05-17T10:42:15.360Z,1980.00
2023-05-17T10:43:13.795Z,2008.12
2023-05-17T10:44:13.988Z,1985.62
2023-05-17T10:45:14.021Z,1985.62
2023-05-17T10:46:14.224Z,2013.75
2023-05-17T10:47:14.284Z,2008.12
2023-05-17T10:48:14.433Z,2070.00
2023-05-17T10:49:14.574Z,2025.00
2023-05-17T10:50:14.670Z,2019.38
2023-05-17T10:51:14.790Z,1985.62
2023-05-17T10:52:14.858Z,2047.50
2023-05-17T10:53:14.993Z,2103.75
2023-05-17T10:54:15.077Z,2171.25
2023-05-17T10:55:15.223Z,2148.75
2023-05-17T10:56:15.360Z,2300.62
2023-05-17T10:57:15.457Z,2278.12
2023-05-17T10:58:15.623Z,2047.50
2023-05-17T10:59:15.686Z,2418.75
2023-05-17T11:00:15.859Z,2446.88
2023-05-17T11:01:15.991Z,1530.00
2023-05-17T11:02:16.019Z,2621.25
2023-05-17T11:03:16.142Z,2666.25
2023-05-17T11:04:16.306Z,1231.88
2023-05-17T11:05:16.552Z,1980.00
2023-05-17T11:06:24.751Z,753.75
2023-05-17T11:07:17.700Z,663.75
2023-05-17T11:08:16.791Z,630.00
2023-05-17T11:09:16.941Z,630.00
2023-05-17T11:10:17.104Z,663.75
2023-05-17T11:11:17.204Z,708.75
2023-05-17T11:12:17.324Z,691.88
2023-05-17T11:13:17.510Z,714.38
2023-05-17T11:14:17.579Z,736.88
2023-05-17T11:15:17.702Z,742.50
2023-05-17T11:16:18.348Z,703.12
2023-05-17T11:17:18.037Z,2340.00
2023-05-17T11:18:29.488Z,894.38
2023-05-17T11:19:19.322Z,855.00
2023-05-17T11:20:18.396Z,871.88
2023-05-17T11:21:18.479Z,860.62
2023-05-17T11:22:18.578Z,742.50
2023-05-17T11:23:18.902Z,691.88
2023-05-17T11:24:20.841Z,652.50
2023-05-17T11:25:18.957Z,618.75
2023-05-17T11:26:19.116Z,624.38
2023-05-17T11:27:19.194Z,618.75
2023-05-17T11:28:19.406Z,624.38
2023-05-17T11:29:19.416Z,630.00
2023-05-17T11:30:19.572Z,725.62
2023-05-17T11:31:19.689Z,1248.75
2023-05-17T11:32:19.800Z,1260.00
2023-05-17T11:33:29.727Z,1873.12
2023-05-17T11:34:21.060Z,1271.25
2023-05-17T11:35:20.213Z,961.88
2023-05-17T11:36:20.267Z,1012.50
2023-05-17T11:37:20.369Z,1260.00
2023-05-17T11:38:20.574Z,1755.00
2023-05-17T11:39:20.595Z,1659.38
2023-05-17T11:40:20.734Z,1164.38
2023-05-17T11:42:20.945Z,905.62
2023-05-17T11:43:21.090Z,945.00
2023-05-17T11:44:21.148Z,1316.25
2023-05-17T11:45:21.260Z,1181.25
2023-05-17T11:46:21.415Z,973.12
2023-05-17T11:47:21.768Z,675.00
2023-05-17T11:48:21.759Z,939.38
2023-05-17T11:49:34.261Z,832.50
2023-05-17T11:50:22.865Z,961.88
2023-05-17T11:51:24.975Z,1074.38
2023-05-17T11:52:22.088Z,1113.75
2023-05-17T11:53:22.239Z,1141.88
2023-05-17T11:54:22.360Z,1147.50
2023-05-17T11:55:22.483Z,787.50
2023-05-17T11:56:29.208Z,787.50
2023-05-17T11:57:23.750Z,815.62
2023-05-17T11:58:22.985Z,905.62
2023-05-17T11:59:23.185Z,871.88
2023-05-17T12:00:23.106Z,911.25
2023-05-17T12:01:23.289Z,911.25
2023-05-17T12:02:23.366Z,1102.50
2023-05-17T12:03:23.536Z,1001.25
2023-05-17T12:04:23.624Z,922.50
2023-05-17T12:05:23.749Z,871.88
2023-05-17T12:06:23.873Z,883.12
2023-05-17T12:07:24.004Z,1040.62
2023-05-17T12:08:24.055Z,1198.12
2023-05-17T12:09:24.228Z,1006.88
2023-05-17T12:10:24.353Z,1012.50
2023-05-17T12:11:24.926Z,1153.12
2023-05-17T12:12:24.605Z,1181.25
2023-05-17T12:13:24.638Z,1254.38
2023-05-17T12:14:24.790Z,1096.88
2023-05-17T12:15:24.919Z,1153.12
2023-05-17T12:16:25.015Z,1237.50
2023-05-17T12:17:25.219Z,1158.75
2023-05-17T12:18:25.504Z,2036.25
2023-05-17T12:19:25.504Z,3690.00
2023-05-17T12:20:25.673Z,3588.75
2023-05-17T12:21:25.670Z,1035.00
2023-05-17T12:22:25.898Z,736.88
2023-05-17T12:23:25.912Z,596.25
2023-05-17T12:24:26.069Z,2919.38
2023-05-17T12:25:26.119Z,3577.50
2023-05-17T12:26:26.212Z,3729.38
2023-05-17T12:27:26.368Z,3701.25
2023-05-17T12:28:26.484Z,3071.25
2023-05-17T12:29:26.599Z,2497.50
2023-05-17T12:30:26.844Z,2700.00
2023-05-17T12:31:26.808Z,765.00
2023-05-17T12:32:26.951Z,3178.12
2023-05-17T12:33:27.129Z,2385.00
2023-05-17T12:34:27.221Z,1507.50
2023-05-17T12:35:27.638Z,1670.62
2023-05-17T12:36:27.432Z,900.00
2023-05-17T12:37:27.588Z,781.88
2023-05-17T12:38:27.845Z,736.88
2023-05-17T12:39:27.809Z,680.62
2023-05-17T12:40:28.109Z,601.88
2023-05-17T12:41:28.052Z,568.12
2023-05-17T12:42:28.176Z,562.50
2023-05-17T12:43:28.355Z,691.88